NVO weather

Pista Nuevo Leon Baja II
Mexicali, Baja California, Mexico

Public forecast

Using degrees Celsius for public forecast. Weather courtesy of forecast.io.

METAR (pilot weather report)

Closest report is General Rodolfo Sánchez Taboada International Airport, 13.4 nm (24.8 km) NNW. Retrieved 2019/08/23 22:44 UTC (18 minutes ago):

MMML 232244Z 13011KT 10SM SKC 38/16 A2970 RMK HZY

TAF (pilot weather forecast)

Closest forecast is General Rodolfo Sánchez Taboada International Airport, 13.4 nm (24.8 km) NNW. Retrieved 2019/08/23 18:57 UTC (4 hours ago):

TAF MMML 231655Z 2318/2418 15012KT P6SM SCT030 FM240400 20008KT P6SM SKC FM241200 30005KT 6SM HZ BKN018